sensor_id;sensor_type;location;lat;lon;timestamp;P1;durP1;ratioP1;P2;durP2;ratioP2
21731;SDS011;11028;51.156;17.130;2022-07-04T00:03:38;7.18;;;6.15;;
21731;SDS011;11028;51.156;17.130;2022-07-04T00:10:55;8.05;;;5.97;;
21731;SDS011;11028;51.156;17.130;2022-07-04T00:18:11;6.95;;;6.25;;
21731;SDS011;11028;51.156;17.130;2022-07-04T00:25:30;8.13;;;5.95;;
21731;SDS011;11028;51.156;17.130;2022-07-04T00:32:46;9.63;;;7.50;;
21731;SDS011;11028;51.156;17.130;2022-07-04T00:40:04;7.07;;;6.38;;
21731;SDS011;11028;51.156;17.130;2022-07-04T00:47:22;11.85;;;6.43;;
21731;SDS011;11028;51.156;17.130;2022-07-04T00:54:39;8.63;;;5.93;;
21731;SDS011;11028;51.156;17.130;2022-07-04T01:01:56;7.78;;;6.95;;
21731;SDS011;11028;51.156;17.130;2022-07-04T01:09:14;7.85;;;6.60;;
21731;SDS011;11028;51.156;17.130;2022-07-04T01:16:31;8.15;;;6.57;;
21731;SDS011;11028;51.156;17.130;2022-07-04T01:23:50;10.43;;;6.68;;
21731;SDS011;11028;51.156;17.130;2022-07-04T01:31:07;9.90;;;7.03;;
21731;SDS011;11028;51.156;17.130;2022-07-04T01:38:23;11.55;;;6.88;;
21731;SDS011;11028;51.156;17.130;2022-07-04T01:45:42;10.65;;;7.35;;
21731;SDS011;11028;51.156;17.130;2022-07-04T01:52:59;9.07;;;7.43;;
21731;SDS011;11028;51.156;17.130;2022-07-04T02:00:16;9.48;;;7.35;;
21731;SDS011;11028;51.156;17.130;2022-07-04T02:07:51;9.13;;;6.97;;
21731;SDS011;11028;51.156;17.130;2022-07-04T02:15:08;7.88;;;6.80;;
21731;SDS011;11028;51.156;17.130;2022-07-04T02:22:25;10.70;;;7.00;;
21731;SDS011;11028;51.156;17.130;2022-07-04T02:29:44;10.50;;;7.00;;
21731;SDS011;11028;51.156;17.130;2022-07-04T02:37:00;10.82;;;7.88;;
21731;SDS011;11028;51.156;17.130;2022-07-04T02:44:17;14.75;;;8.02;;
21731;SDS011;11028;51.156;17.130;2022-07-04T02:51:36;13.43;;;7.47;;
21731;SDS011;11028;51.156;17.130;2022-07-04T02:58:53;13.90;;;7.80;;
21731;SDS011;11028;51.156;17.130;2022-07-04T03:06:10;11.63;;;7.25;;
21731;SDS011;11028;51.156;17.130;2022-07-04T03:13:31;11.82;;;7.60;;
21731;SDS011;11028;51.156;17.130;2022-07-04T03:20:51;12.50;;;7.30;;
21731;SDS011;11028;51.156;17.130;2022-07-04T03:28:07;12.90;;;8.25;;
21731;SDS011;11028;51.156;17.130;2022-07-04T03:35:26;12.23;;;8.02;;
21731;SDS011;11028;51.156;17.130;2022-07-04T03:42:42;13.93;;;8.75;;
21731;SDS011;11028;51.156;17.130;2022-07-04T03:49:59;14.15;;;8.98;;
21731;SDS011;11028;51.156;17.130;2022-07-04T03:57:17;19.83;;;8.63;;
21731;SDS011;11028;51.156;17.130;2022-07-04T04:04:34;15.52;;;7.70;;
21731;SDS011;11028;51.156;17.130;2022-07-04T04:12:08;16.65;;;8.82;;
21731;SDS011;11028;51.156;17.130;2022-07-04T04:19:27;10.02;;;8.07;;
21731;SDS011;11028;51.156;17.130;2022-07-04T04:26:43;15.38;;;8.07;;
21731;SDS011;11028;51.156;17.130;2022-07-04T04:34:00;12.07;;;8.13;;
21731;SDS011;11028;51.156;17.130;2022-07-04T04:41:18;14.02;;;8.25;;
21731;SDS011;11028;51.156;17.130;2022-07-04T04:48:35;11.25;;;7.70;;
21731;SDS011;11028;51.156;17.130;2022-07-04T04:55:52;12.52;;;8.05;;
21731;SDS011;11028;51.156;17.130;2022-07-04T05:03:10;11.98;;;7.22;;
21731;SDS011;11028;51.156;17.130;2022-07-04T05:10:27;8.40;;;5.82;;
21731;SDS011;11028;51.156;17.130;2022-07-04T05:17:44;9.75;;;6.20;;
21731;SDS011;11028;51.156;17.130;2022-07-04T05:25:02;7.45;;;6.28;;
21731;SDS011;11028;51.156;17.130;2022-07-04T05:32:22;12.50;;;6.35;;
21731;SDS011;11028;51.156;17.130;2022-07-04T05:39:38;11.85;;;5.50;;
21731;SDS011;11028;51.156;17.130;2022-07-04T05:46:56;7.55;;;5.72;;
21731;SDS011;11028;51.156;17.130;2022-07-04T05:54:13;8.90;;;5.90;;
21731;SDS011;11028;51.156;17.130;2022-07-04T06:01:30;10.55;;;6.03;;
21731;SDS011;11028;51.156;17.130;2022-07-04T06:08:51;17.48;;;9.48;;
21731;SDS011;11028;51.156;17.130;2022-07-04T06:16:07;6.53;;;5.03;;
21731;SDS011;11028;51.156;17.130;2022-07-04T06:23:24;7.65;;;5.47;;
21731;SDS011;11028;51.156;17.130;2022-07-04T06:30:42;8.25;;;4.72;;
21731;SDS011;11028;51.156;17.130;2022-07-04T06:37:59;8.68;;;4.50;;
21731;SDS011;11028;51.156;17.130;2022-07-04T06:45:15;7.85;;;4.38;;
21731;SDS011;11028;51.156;17.130;2022-07-04T06:52:34;6.50;;;3.75;;
21731;SDS011;11028;51.156;17.130;2022-07-04T06:59:50;9.57;;;3.97;;
21731;SDS011;11028;51.156;17.130;2022-07-04T07:07:07;12.07;;;4.30;;
21731;SDS011;11028;51.156;17.130;2022-07-04T07:14:25;8.80;;;3.75;;
21731;SDS011;11028;51.156;17.130;2022-07-04T07:21:42;7.75;;;3.15;;
21731;SDS011;11028;51.156;17.130;2022-07-04T07:28:59;6.53;;;2.80;;
21731;SDS011;11028;51.156;17.130;2022-07-04T07:36:17;7.88;;;5.88;;
21731;SDS011;11028;51.156;17.130;2022-07-04T07:43:34;4.57;;;3.65;;
21731;SDS011;11028;51.156;17.130;2022-07-04T07:50:51;25.65;;;16.67;;
21731;SDS011;11028;51.156;17.130;2022-07-04T07:58:09;5.07;;;3.25;;
21731;SDS011;11028;51.156;17.130;2022-07-04T08:05:26;6.63;;;3.00;;
21731;SDS011;11028;51.156;17.130;2022-07-04T08:12:43;4.95;;;3.05;;
21731;SDS011;11028;51.156;17.130;2022-07-04T08:20:01;7.60;;;4.45;;
21731;SDS011;11028;51.156;17.130;2022-07-04T08:27:18;3.53;;;3.05;;
21731;SDS011;11028;51.156;17.130;2022-07-04T08:34:35;3.53;;;3.20;;
21731;SDS011;11028;51.156;17.130;2022-07-04T08:41:54;6.50;;;3.35;;
21731;SDS011;11028;51.156;17.130;2022-07-04T08:49:14;9.18;;;3.30;;
21731;SDS011;11028;51.156;17.130;2022-07-04T08:56:34;9.73;;;3.10;;
21731;SDS011;11028;51.156;17.130;2022-07-04T09:04:10;8.52;;;3.38;;
21731;SDS011;11028;51.156;17.130;2022-07-04T09:11:27;5.93;;;3.20;;
21731;SDS011;11028;51.156;17.130;2022-07-04T09:18:44;5.43;;;3.85;;
21731;SDS011;11028;51.156;17.130;2022-07-04T09:26:10;6.97;;;3.97;;
21731;SDS011;11028;51.156;17.130;2022-07-04T09:33:48;5.60;;;3.47;;
21731;SDS011;11028;51.156;17.130;2022-07-04T09:41:07;7.80;;;3.70;;
21731;SDS011;11028;51.156;17.130;2022-07-04T09:48:48;6.78;;;4.50;;
21731;SDS011;11028;51.156;17.130;2022-07-04T09:56:05;7.07;;;4.72;;
21731;SDS011;11028;51.156;17.130;2022-07-04T10:03:23;4.97;;;4.38;;
21731;SDS011;11028;51.156;17.130;2022-07-04T10:10:41;8.02;;;4.25;;
21731;SDS011;11028;51.156;17.130;2022-07-04T10:18:00;12.63;;;4.72;;
21731;SDS011;11028;51.156;17.130;2022-07-04T10:25:18;6.88;;;4.65;;
21731;SDS011;11028;51.156;17.130;2022-07-04T10:32:35;8.93;;;5.70;;
21731;SDS011;11028;51.156;17.130;2022-07-04T10:39:52;12.82;;;5.70;;
21731;SDS011;11028;51.156;17.130;2022-07-04T10:47:11;8.80;;;4.60;;
21731;SDS011;11028;51.156;17.130;2022-07-04T10:54:39;5.65;;;4.57;;
21731;SDS011;11028;51.156;17.130;2022-07-04T11:16:55;5.55;;;4.88;;
21731;SDS011;11028;51.156;17.130;2022-07-04T11:24:14;10.35;;;5.18;;
21731;SDS011;11028;51.156;17.130;2022-07-04T11:31:34;8.18;;;5.05;;
21731;SDS011;11028;51.156;17.130;2022-07-04T11:38:53;8.87;;;4.40;;
21731;SDS011;11028;51.156;17.130;2022-07-04T11:46:12;7.30;;;4.70;;
21731;SDS011;11028;51.156;17.130;2022-07-04T11:53:29;9.45;;;4.85;;
21731;SDS011;11028;51.156;17.130;2022-07-04T12:00:45;7.07;;;4.35;;
21731;SDS011;11028;51.156;17.130;2022-07-04T12:08:03;13.93;;;9.23;;
21731;SDS011;11028;51.156;17.130;2022-07-04T12:15:23;8.38;;;4.55;;
21731;SDS011;11028;51.156;17.130;2022-07-04T12:22:41;4.35;;;3.92;;
21731;SDS011;11028;51.156;17.130;2022-07-04T12:30:00;4.60;;;4.20;;
21731;SDS011;11028;51.156;17.130;2022-07-04T12:37:19;4.20;;;3.80;;
21731;SDS011;11028;51.156;17.130;2022-07-04T12:44:35;5.05;;;2.95;;
21731;SDS011;11028;51.156;17.130;2022-07-04T12:52:02;2.78;;;2.42;;
21731;SDS011;11028;51.156;17.130;2022-07-04T12:59:20;3.78;;;2.70;;
21731;SDS011;11028;51.156;17.130;2022-07-04T13:06:36;5.75;;;2.40;;
21731;SDS011;11028;51.156;17.130;2022-07-04T13:13:54;3.15;;;2.90;;
21731;SDS011;11028;51.156;17.130;2022-07-04T13:21:11;5.30;;;2.80;;
21731;SDS011;11028;51.156;17.130;2022-07-04T13:28:28;3.55;;;2.85;;
21731;SDS011;11028;51.156;17.130;2022-07-04T13:35:46;4.70;;;2.78;;
21731;SDS011;11028;51.156;17.130;2022-07-04T13:43:03;2.80;;;2.50;;
21731;SDS011;11028;51.156;17.130;2022-07-04T13:57:43;4.82;;;2.35;;
21731;SDS011;11028;51.156;17.130;2022-07-04T14:05:00;3.17;;;2.83;;
21731;SDS011;11028;51.156;17.130;2022-07-04T14:12:18;8.75;;;3.40;;
21731;SDS011;11028;51.156;17.130;2022-07-04T14:28:21;3.88;;;2.60;;
21731;SDS011;11028;51.156;17.130;2022-07-04T14:35:38;3.97;;;3.00;;
21731;SDS011;11028;51.156;17.130;2022-07-04T14:42:55;3.20;;;2.90;;
21731;SDS011;11028;51.156;17.130;2022-07-04T14:58:57;4.80;;;2.83;;
21731;SDS011;11028;51.156;17.130;2022-07-04T15:06:14;12.55;;;6.97;;
21731;SDS011;11028;51.156;17.130;2022-07-04T15:13:31;3.03;;;2.80;;
21731;SDS011;11028;51.156;17.130;2022-07-04T15:29:33;4.53;;;2.60;;
21731;SDS011;11028;51.156;17.130;2022-07-04T15:36:50;3.40;;;2.25;;
21731;SDS011;11028;51.156;17.130;2022-07-04T15:44:07;3.78;;;2.65;;
21731;SDS011;11028;51.156;17.130;2022-07-04T16:00:10;8.93;;;2.58;;
21731;SDS011;11028;51.156;17.130;2022-07-04T16:07:28;2.85;;;2.55;;
21731;SDS011;11028;51.156;17.130;2022-07-04T16:14:45;2.72;;;2.40;;
21731;SDS011;11028;51.156;17.130;2022-07-04T16:30:47;7.45;;;5.30;;
21731;SDS011;11028;51.156;17.130;2022-07-04T16:38:04;6.93;;;3.50;;
21731;SDS011;11028;51.156;17.130;2022-07-04T16:45:21;12.30;;;9.93;;
21731;SDS011;11028;51.156;17.130;2022-07-04T16:52:39;4.18;;;3.53;;
21731;SDS011;11028;51.156;17.130;2022-07-04T16:59:55;4.28;;;3.88;;
21731;SDS011;11028;51.156;17.130;2022-07-04T17:07:12;4.95;;;3.78;;
21731;SDS011;11028;51.156;17.130;2022-07-04T17:14:30;5.47;;;2.92;;
21731;SDS011;11028;51.156;17.130;2022-07-04T17:30:32;3.75;;;3.10;;
21731;SDS011;11028;51.156;17.130;2022-07-04T17:37:49;5.75;;;3.28;;
21731;SDS011;11028;51.156;17.130;2022-07-04T17:45:06;5.22;;;3.55;;
21731;SDS011;11028;51.156;17.130;2022-07-04T17:52:25;6.80;;;3.90;;
21731;SDS011;11028;51.156;17.130;2022-07-04T17:59:42;11.23;;;4.13;;
21731;SDS011;11028;51.156;17.130;2022-07-04T18:06:59;6.30;;;4.50;;
21731;SDS011;11028;51.156;17.130;2022-07-04T18:14:17;13.27;;;5.82;;
21731;SDS011;11028;51.156;17.130;2022-07-04T18:30:19;14.43;;;7.20;;
21731;SDS011;11028;51.156;17.130;2022-07-04T18:37:36;21.40;;;9.98;;
21731;SDS011;11028;51.156;17.130;2022-07-04T18:44:53;41.38;;;24.35;;
21731;SDS011;11028;51.156;17.130;2022-07-04T18:52:11;12.68;;;7.80;;
21731;SDS011;11028;51.156;17.130;2022-07-04T18:59:28;17.27;;;10.18;;
21731;SDS011;11028;51.156;17.130;2022-07-04T19:06:45;10.73;;;9.35;;
21731;SDS011;11028;51.156;17.130;2022-07-04T19:14:03;13.02;;;8.45;;
21731;SDS011;11028;51.156;17.130;2022-07-04T19:30:09;9.45;;;8.45;;
21731;SDS011;11028;51.156;17.130;2022-07-04T19:37:27;14.38;;;9.27;;
21731;SDS011;11028;51.156;17.130;2022-07-04T19:44:44;12.35;;;9.35;;
21731;SDS011;11028;51.156;17.130;2022-07-04T20:00:45;10.82;;;9.73;;
21731;SDS011;11028;51.156;17.130;2022-07-04T20:08:02;12.23;;;10.07;;
21731;SDS011;11028;51.156;17.130;2022-07-04T20:15:19;11.38;;;9.50;;
21731;SDS011;11028;51.156;17.130;2022-07-04T20:22:37;21.27;;;15.07;;
21731;SDS011;11028;51.156;17.130;2022-07-04T20:29:55;11.98;;;10.77;;
21731;SDS011;11028;51.156;17.130;2022-07-04T20:37:12;9.40;;;8.40;;
21731;SDS011;11028;51.156;17.130;2022-07-04T20:44:30;11.18;;;9.45;;
21731;SDS011;11028;51.156;17.130;2022-07-04T21:00:34;10.48;;;9.40;;
21731;SDS011;11028;51.156;17.130;2022-07-04T21:07:51;11.73;;;10.43;;
21731;SDS011;11028;51.156;17.130;2022-07-04T21:15:11;12.32;;;9.98;;
21731;SDS011;11028;51.156;17.130;2022-07-04T21:22:29;17.83;;;11.82;;
21731;SDS011;11028;51.156;17.130;2022-07-04T21:29:46;12.00;;;10.60;;
21731;SDS011;11028;51.156;17.130;2022-07-04T21:37:03;13.00;;;11.40;;
21731;SDS011;11028;51.156;17.130;2022-07-04T21:44:21;14.88;;;11.48;;
21731;SDS011;11028;51.156;17.130;2022-07-04T22:00:24;14.05;;;10.40;;
21731;SDS011;11028;51.156;17.130;2022-07-04T22:07:41;12.18;;;9.38;;
21731;SDS011;11028;51.156;17.130;2022-07-04T22:14:58;11.32;;;10.20;;
21731;SDS011;11028;51.156;17.130;2022-07-04T22:22:16;12.65;;;10.75;;
21731;SDS011;11028;51.156;17.130;2022-07-04T22:29:33;14.60;;;10.05;;
21731;SDS011;11028;51.156;17.130;2022-07-04T22:36:50;12.18;;;10.77;;
21731;SDS011;11028;51.156;17.130;2022-07-04T22:44:08;11.15;;;10.07;;
21731;SDS011;11028;51.156;17.130;2022-07-04T23:00:11;10.77;;;9.43;;
21731;SDS011;11028;51.156;17.130;2022-07-04T23:07:29;10.88;;;9.73;;
21731;SDS011;11028;51.156;17.130;2022-07-04T23:14:46;10.50;;;9.40;;
21731;SDS011;11028;51.156;17.130;2022-07-04T23:30:48;14.35;;;9.73;;
21731;SDS011;11028;51.156;17.130;2022-07-04T23:38:04;11.70;;;8.98;;
21731;SDS011;11028;51.156;17.130;2022-07-04T23:45:21;11.00;;;8.57;;
21731;SDS011;11028;51.156;17.130;2022-07-04T23:52:39;11.50;;;8.02;;
21731;SDS011;11028;51.156;17.130;2022-07-04T23:59:56;13.90;;;8.73;;
